Time;durP1;ratioP1;P1;durP2;ratioP2;P2;SDS_P1;SDS_P2;PMS_P1;PMS_P2;Temp;Humidity;BMP_temperature;BMP_pressure;BME280_temperature;BME280_humidity;BME280_pressure;Samples;Min_cycle;Max_cycle;Signal;HPM_P1;HPM_P2
2022/06/27 00:00:25;;;;;;;10.50;4.90;;;16.80;99.90;;;;;;5022837;28;20079;-65
2022/06/27 00:02:50;;;;;;;7.07;4.53;;;16.80;99.90;;;;;;5010658;28;20076;-66
2022/06/27 00:05:16;;;;;;;5.95;4.10;;;17.00;99.90;;;;;;5011291;28;20175;-65
2022/06/27 00:07:42;;;;;;;4.38;3.70;;;17.00;99.90;;;;;;5008083;28;20046;-65
2022/06/27 00:10:09;;;;;;;6.20;4.22;;;16.90;99.90;;;;;;5000461;28;20037;-65
2022/06/27 00:12:35;;;;;;;7.00;4.28;;;16.90;99.90;;;;;;5020186;28;20411;-65
2022/06/27 00:15:03;;;;;;;7.70;4.93;;;16.90;99.90;;;;;;5039895;28;20391;-65
2022/06/27 00:17:29;;;;;;;6.72;3.92;;;16.90;99.90;;;;;;5004403;28;20049;-65
2022/06/27 00:19:55;;;;;;;7.70;4.80;;;16.90;99.90;;;;;;5016197;28;20052;-65
2022/06/27 00:22:21;;;;;;;5.40;3.95;;;16.80;99.90;;;;;;5014410;28;20050;-65
2022/06/27 00:24:48;;;;;;;4.25;3.70;;;16.50;99.90;;;;;;5017898;28;20045;-65
2022/06/27 00:27:14;;;;;;;6.43;4.03;;;16.60;99.90;;;;;;5014695;28;20092;-66
2022/06/27 00:29:40;;;;;;;5.05;3.72;;;16.80;99.90;;;;;;5006161;28;20041;-65
2022/06/27 00:32:07;;;;;;;6.30;4.05;;;17.90;99.90;;;;;;5008965;28;20492;-65
2022/06/27 00:34:32;;;;;;;12.38;4.38;;;16.60;99.90;;;;;;5001105;28;20034;-66
2022/06/27 00:36:58;;;;;;;6.90;4.40;;;16.50;99.90;;;;;;5014431;28;20064;-65
2022/06/27 00:39:23;;;;;;;6.45;4.45;;;16.50;99.90;;;;;;5029966;28;20044;-65
2022/06/27 00:41:49;;;;;;;7.50;4.75;;;16.80;99.90;;;;;;5042120;28;20049;-66
2022/06/27 00:44:34;;;;;;;8.57;4.65;;;16.80;99.90;;;;;;5030057;28;20038;-65
2022/06/27 00:47:00;;;;;;;8.63;6.03;;;16.70;99.90;;;;;;5020416;28;20045;-67
2022/06/27 00:49:25;;;;;;;8.32;5.03;;;16.50;99.90;;;;;;5010855;28;20515;-66
2022/06/27 00:51:51;;;;;;;8.32;4.95;;;16.60;99.90;;;;;;5016852;28;20487;-65
2022/06/27 00:54:17;;;;;;;7.43;5.20;;;16.40;99.90;;;;;;5017470;28;20041;-65
2022/06/27 00:56:43;;;;;;;7.57;4.70;;;16.50;99.90;;;;;;5021277;28;20047;-65
2022/06/27 00:59:08;;;;;;;7.05;4.90;;;16.50;99.90;;;;;;5027036;28;20034;-65
2022/06/27 01:01:34;;;;;;;5.63;4.57;;;16.40;99.90;;;;;;5013916;28;20049;-65
2022/06/27 01:04:01;;;;;;;10.48;4.72;;;16.50;99.90;;;;;;4997887;28;20465;-65
2022/06/27 01:06:30;;;;;;;6.10;4.82;;;16.60;99.90;;;;;;4997283;28;20050;-65
2022/06/27 01:08:56;;;;;;;6.50;5.50;;;16.50;99.90;;;;;;5013496;28;20065;-65
2022/06/27 01:11:21;;;;;;;7.60;5.13;;;16.30;99.90;;;;;;5013740;28;20076;-65
2022/06/27 01:13:48;;;;;;;5.90;4.80;;;16.40;99.90;;;;;;5015466;28;20034;-65
2022/06/27 01:16:14;;;;;;;6.90;4.78;;;16.30;99.90;;;;;;4997399;28;20034;-65
2022/06/27 01:18:43;;;;;;;7.47;5.10;;;16.40;99.90;;;;;;5018318;28;20038;-65
2022/06/27 01:21:14;;;;;;;5.00;4.50;;;16.40;99.90;;;;;;5038706;28;20496;-66
2022/06/27 01:23:40;;;;;;;9.07;4.70;;;16.30;99.90;;;;;;5011122;28;20076;-65
2022/06/27 01:26:06;;;;;;;6.85;4.72;;;16.20;99.90;;;;;;5013255;28;20072;-64
2022/06/27 01:28:34;;;;;;;6.78;4.22;;;16.30;99.90;;;;;;5014635;28;20500;-65
2022/06/27 01:30:59;;;;;;;6.72;4.90;;;16.40;99.90;;;;;;5019562;28;20036;-66
2022/06/27 01:33:25;;;;;;;5.15;4.65;;;16.40;99.90;;;;;;5005885;28;20040;-65
2022/06/27 01:36:41;;;;;;;7.55;5.55;;;16.40;99.90;;;;;;5018177;28;20536;-65
2022/06/27 01:38:36;;;;;;;7.72;5.45;;;16.40;99.90;;;;;;5014896;28;20046;-65
2022/06/27 01:41:02;;;;;;;5.57;4.80;;;16.20;99.90;;;;;;5014255;28;20044;-66
2022/06/27 01:43:28;;;;;;;9.43;5.10;;;17.60;99.90;;;;;;5014604;28;20568;-65
2022/06/27 01:45:53;;;;;;;6.43;5.25;;;16.40;99.90;;;;;;5002190;28;20056;-65
2022/06/27 01:48:19;;;;;;;13.25;5.47;;;16.30;99.90;;;;;;4986882;28;20041;-65
2022/06/27 01:50:49;;;;;;;4.55;4.03;;;16.70;99.90;;;;;;5016263;28;20037;-65
2022/06/27 01:53:16;;;;;;;6.43;4.63;;;16.30;99.90;;;;;;5021478;28;20037;-65
2022/06/27 01:55:42;;;;;;;7.15;4.68;;;16.40;99.90;;;;;;5013793;28;20416;-65
2022/06/27 01:58:07;;;;;;;5.70;5.05;;;16.60;99.90;;;;;;5011287;28;20037;-65
2022/06/27 02:00:33;;;;;;;7.13;5.35;;;16.50;99.90;;;;;;5025763;28;20079;-65
2022/06/27 02:02:59;;;;;;;6.95;5.72;;;16.40;99.90;;;;;;5050953;28;20502;-65
2022/06/27 02:05:25;;;;;;;6.80;5.07;;;16.30;99.90;;;;;;5014016;28;20052;-66
2022/06/27 02:07:52;;;;;;;8.40;5.28;;;16.40;99.90;;;;;;5040570;28;20116;-67
2022/06/27 02:10:18;;;;;;;7.90;5.13;;;16.40;99.90;;;;;;5036270;28;20033;-66
2022/06/27 02:12:44;;;;;;;6.75;5.95;;;16.40;99.90;;;;;;5030600;28;20069;-65
2022/06/27 02:15:10;;;;;;;7.65;5.07;;;16.30;99.90;;;;;;5041756;28;20046;-64
2022/06/27 02:17:36;;;;;;;8.48;5.68;;;16.30;99.90;;;;;;4996352;28;20464;-66
2022/06/27 02:20:04;;;;;;;9.48;6.00;;;17.60;99.90;;;;;;5023738;28;20080;-65
2022/06/27 02:22:30;;;;;;;8.50;6.05;;;16.30;99.90;;;;;;5013582;28;20518;-65
2022/06/27 02:24:55;;;;;;;7.40;5.72;;;16.50;99.90;;;;;;5012766;28;20038;-65
2022/06/27 02:27:22;;;;;;;10.90;6.03;;;16.50;99.90;;;;;;5016065;28;20033;-65
2022/06/27 02:29:47;;;;;;;6.38;4.85;;;16.40;99.90;;;;;;5027567;28;20560;-65
2022/06/27 02:32:14;;;;;;;7.65;5.72;;;16.40;99.90;;;;;;5013419;28;20041;-65
2022/06/27 02:34:39;;;;;;;10.77;6.32;;;16.20;99.90;;;;;;5035520;28;20115;-64
2022/06/27 02:37:07;;;;;;;8.02;6.28;;;16.40;99.90;;;;;;5034914;28;20116;-65
2022/06/27 02:39:35;;;;;;;9.38;6.28;;;16.50;99.90;;;;;;5035370;28;20067;-66
2022/06/27 02:42:03;;;;;;;9.20;5.75;;;16.00;99.90;;;;;;5035221;28;20045;-65
2022/06/27 02:44:29;;;;;;;10.98;6.63;;;16.20;99.90;;;;;;5029343;28;20030;-65
2022/06/27 02:46:55;;;;;;;7.38;5.13;;;16.40;99.90;;;;;;5010935;28;20406;-67
2022/06/27 02:49:20;;;;;;;10.00;6.10;;;17.50;99.90;;;;;;5020303;28;20044;-65
2022/06/27 02:52:05;;;;;;;9.85;6.57;;;16.40;99.90;;;;;;5039253;28;20037;-65
2022/06/27 02:55:02;;;;;;;6.93;5.88;;;16.50;99.90;;;;;;5012706;28;20077;-65
2022/06/27 02:57:47;;;;;;;6.88;4.95;;;16.40;99.90;;;;;;5010315;28;20057;-65
2022/06/27 03:00:14;;;;;;;10.27;6.20;;;16.20;99.90;;;;;;5002388;28;20098;-66
2022/06/27 03:02:42;;;;;;;8.00;6.03;;;16.60;99.90;;;;;;4998708;28;20126;-65
2022/06/27 03:05:08;;;;;;;7.65;5.72;;;16.30;99.90;;;;;;5005994;28;20049;-65
2022/06/27 03:07:38;;;;;;;9.15;6.35;;;16.10;99.90;;;;;;5051562;28;20411;-65
2022/06/27 03:10:04;;;;;;;10.13;5.63;;;16.60;99.90;;;;;;5000031;28;20025;-67
2022/06/27 03:12:30;;;;;;;9.52;6.18;;;16.30;99.90;;;;;;5011508;28;20045;-65
2022/06/27 03:14:55;;;;;;;10.00;7.03;;;16.30;99.90;;;;;;5023220;28;20044;-66
2022/06/27 03:17:21;;;;;;;13.43;6.90;;;16.50;99.90;;;;;;5028324;28;20545;-66
2022/06/27 03:19:46;;;;;;;14.20;7.63;;;16.60;99.90;;;;;;5025405;28;20074;-65
2022/06/27 03:22:12;;;;;;;11.60;6.70;;;16.40;99.90;;;;;;5012278;28;20045;-65
2022/06/27 03:24:37;;;;;;;9.60;6.60;;;16.30;99.90;;;;;;5044346;28;20047;-65
2022/06/27 03:27:03;;;;;;;9.65;7.55;;;16.30;99.90;;;;;;5027484;28;20048;-65
2022/06/27 03:29:29;;;;;;;14.55;8.00;;;16.30;99.90;;;;;;4995468;28;20053;-66
2022/06/27 03:31:55;;;;;;;11.25;7.43;;;16.50;99.90;;;;;;5024283;28;20036;-65
2022/06/27 03:34:20;;;;;;;8.48;6.30;;;16.50;99.90;;;;;;4997476;28;20049;-65
2022/06/27 03:36:46;;;;;;;9.05;7.72;;;16.30;99.90;;;;;;5032125;28;20375;-66
2022/06/27 03:39:12;;;;;;;10.15;8.18;;;16.20;99.90;;;;;;5049621;28;20120;-65
2022/06/27 03:41:40;;;;;;;11.65;7.05;;;16.30;99.90;;;;;;4994961;28;20050;-66
2022/06/27 03:44:08;;;;;;;7.65;6.90;;;16.30;99.90;;;;;;5011383;28;20515;-65
2022/06/27 03:46:35;;;;;;;9.60;6.80;;;16.40;99.90;;;;;;5013526;28;20135;-66
2022/06/27 03:51:45;;;;;;;7.43;6.70;;;16.20;99.90;;;;;;5026218;28;20037;-65
2022/06/27 03:54:11;;;;;;;9.07;6.75;;;16.00;99.90;;;;;;5025011;28;20069;-65
2022/06/27 03:56:36;;;;;;;11.43;7.03;;;16.30;99.90;;;;;;5015527;28;20117;-66
2022/06/27 03:59:02;;;;;;;9.20;7.82;;;16.30;99.90;;;;;;5026107;28;20056;-65
2022/06/27 04:01:28;;;;;;;7.70;6.30;;;16.20;99.90;;;;;;5000404;28;20048;-67
2022/06/27 04:03:54;;;;;;;9.30;7.25;;;16.20;99.90;;;;;;5000416;28;20045;-66
2022/06/27 04:06:19;;;;;;;12.10;7.45;;;16.30;99.90;;;;;;5004487;28;20430;-65
2022/06/27 04:08:45;;;;;;;11.75;7.97;;;16.30;99.90;;;;;;5028076;28;20044;-65
2022/06/27 04:11:11;;;;;;;11.10;8.00;;;16.30;99.90;;;;;;5015315;28;20041;-65
2022/06/27 04:13:36;;;;;;;8.80;7.45;;;16.30;99.90;;;;;;5013515;28;20038;-66
2022/06/27 04:16:02;;;;;;;9.18;7.43;;;16.20;99.90;;;;;;5024298;28;20056;-65
2022/06/27 04:18:28;;;;;;;10.43;7.47;;;16.30;99.90;;;;;;5029490;28;20029;-65
2022/06/27 04:20:54;;;;;;;11.13;7.93;;;16.20;99.90;;;;;;5012182;28;20068;-65
2022/06/27 04:23:19;;;;;;;9.60;7.38;;;16.20;99.90;;;;;;5015475;28;20049;-65
2022/06/27 04:25:45;;;;;;;9.43;6.63;;;16.10;99.90;;;;;;5025568;28;20037;-65
2022/06/27 04:28:11;;;;;;;11.57;8.80;;;16.30;99.90;;;;;;5003487;28;20046;-65
2022/06/27 04:30:37;;;;;;;11.93;8.02;;;16.20;99.90;;;;;;5024392;28;20037;-65
2022/06/27 04:33:02;;;;;;;12.20;7.68;;;16.20;99.90;;;;;;5005638;28;20048;-65
2022/06/27 04:35:28;;;;;;;11.20;8.13;;;16.20;99.90;;;;;;5010461;28;20037;-65
2022/06/27 04:37:54;;;;;;;10.98;8.15;;;16.20;99.90;;;;;;5047902;28;20044;-65
2022/06/27 04:40:20;;;;;;;11.77;7.88;;;16.30;99.90;;;;;;5010678;28;20069;-65
2022/06/27 04:42:49;;;;;;;10.20;8.52;;;16.30;99.90;;;;;;5020527;28;20492;-65
2022/06/27 04:45:15;;;;;;;10.55;8.32;;;16.30;99.90;;;;;;5025056;28;20075;-65
2022/06/27 04:47:44;;;;;;;12.65;9.25;;;16.20;99.90;;;;;;5024041;28;20041;-65
2022/06/27 04:50:12;;;;;;;14.18;8.50;;;16.50;99.90;;;;;;5009273;28;20037;-65
2022/06/27 04:52:38;;;;;;;13.00;8.63;;;16.20;99.90;;;;;;4999202;28;20555;-65
2022/06/27 04:55:07;;;;;;;12.00;8.40;;;16.30;99.90;;;;;;5015424;28;20046;-65
2022/06/27 04:57:33;;;;;;;10.77;8.70;;;16.10;99.90;;;;;;5010474;28;20045;-64
2022/06/27 04:59:59;;;;;;;11.70;8.85;;;16.30;99.90;;;;;;4993929;28;20041;-64
2022/06/27 05:02:25;;;;;;;17.27;9.82;;;16.40;99.90;;;;;;5021663;28;20058;-64
2022/06/27 05:04:51;;;;;;;12.52;9.65;;;16.40;99.90;;;;;;5003244;28;20072;-64
2022/06/27 05:07:16;;;;;;;15.07;10.13;;;16.50;99.90;;;;;;5003942;28;20045;-64
2022/06/27 05:09:44;;;;;;;14.15;10.35;;;16.60;99.90;;;;;;5029456;28;20449;-65
2022/06/27 05:12:10;;;;;;;14.32;10.95;;;16.60;99.90;;;;;;5011784;28;20041;-65
2022/06/27 05:14:35;;;;;;;12.30;9.82;;;16.60;99.90;;;;;;5012882;28;20045;-64
2022/06/27 05:17:01;;;;;;;12.57;10.20;;;16.30;99.90;;;;;;5001315;28;20041;-65
2022/06/27 05:19:27;;;;;;;15.75;10.88;;;16.80;99.90;;;;;;5020200;28;20084;-65
2022/06/27 05:21:52;;;;;;;12.98;10.40;;;16.60;99.90;;;;;;4993762;28;20132;-65
2022/06/27 05:24:18;;;;;;;13.73;10.77;;;16.60;99.90;;;;;;4993631;28;20045;-65
2022/06/27 05:26:45;;;;;;;15.13;11.35;;;16.60;99.90;;;;;;4993806;28;20049;-64
2022/06/27 05:29:11;;;;;;;12.63;10.50;;;16.80;99.90;;;;;;5011089;28;20435;-64
2022/06/27 05:31:37;;;;;;;17.33;11.70;;;16.80;99.90;;;;;;4996923;28;20476;-64
2022/06/27 05:34:03;;;;;;;12.63;10.75;;;16.70;99.90;;;;;;5003461;28;20059;-64
2022/06/27 05:36:29;;;;;;;14.55;11.65;;;;;;;;;;5002565;28;20049;-65
2022/06/27 05:38:55;;;;;;;13.18;9.98;;;16.80;99.90;;;;;;5016238;28;20120;-64
2022/06/27 05:41:21;;;;;;;13.02;10.60;;;16.90;99.90;;;;;;5004304;28;20116;-65
2022/06/27 05:43:47;;;;;;;13.65;10.68;;;16.80;99.90;;;;;;5010605;28;20046;-64
2022/06/27 05:46:13;;;;;;;12.48;10.75;;;16.80;99.90;;;;;;5018429;28;20046;-64
2022/06/27 05:48:39;;;;;;;11.77;10.15;;;16.70;99.90;;;;;;4992175;28;20492;-64
2022/06/27 05:51:05;;;;;;;14.43;10.68;;;16.90;99.90;;;;;;5001409;28;20483;-65
2022/06/27 05:53:32;;;;;;;13.20;10.77;;;17.10;99.90;;;;;;5001476;28;20050;-65
2022/06/27 05:55:58;;;;;;;10.93;9.73;;;16.70;99.90;;;;;;4995874;28;20113;-65
2022/06/27 05:58:24;;;;;;;11.07;9.38;;;17.00;99.90;;;;;;5019721;28;20048;-64
2022/06/27 06:00:50;;;;;;;11.63;9.55;;;16.90;99.90;;;;;;5014990;28;20029;-65
2022/06/27 06:03:16;;;;;;;11.75;8.93;;;17.00;99.90;;;;;;5016019;28;20412;-65
2022/06/27 06:05:44;;;;;;;11.10;9.10;;;17.10;99.90;;;;;;5011323;28;20041;-65
2022/06/27 06:08:14;;;;;;;12.02;8.68;;;17.10;99.90;;;;;;5031756;28;20044;-65
2022/06/27 06:10:40;;;;;;;13.40;9.23;;;16.90;99.90;;;;;;5009564;28;20050;-65
2022/06/27 06:13:06;;;;;;;11.65;9.27;;;16.90;99.90;;;;;;4999242;28;20040;-65
2022/06/27 06:15:33;;;;;;;15.93;10.23;;;17.00;99.90;;;;;;5029597;28;20558;-65
2022/06/27 06:18:01;;;;;;;11.77;8.80;;;16.90;99.90;;;;;;5014965;28;20093;-65
2022/06/27 06:20:27;;;;;;;11.55;8.68;;;16.80;99.90;;;;;;4998136;28;20450;-64
2022/06/27 06:22:53;;;;;;;9.30;7.75;;;16.90;99.90;;;;;;4996758;28;20053;-64
2022/06/27 06:25:19;;;;;;;9.80;8.32;;;16.70;99.90;;;;;;5016144;28;20068;-64
2022/06/27 06:27:45;;;;;;;9.75;7.72;;;16.90;99.90;;;;;;5015787;28;20496;-64
2022/06/27 06:30:11;;;;;;;10.45;8.43;;;17.00;99.90;;;;;;4998498;28;20049;-64
2022/06/27 06:32:37;;;;;;;8.70;7.13;;;17.10;99.90;;;;;;5014734;28;20518;-64
2022/06/27 06:35:04;;;;;;;9.32;7.32;;;19.20;99.90;;;;;;4996244;28;20056;-65
2022/06/27 06:37:31;;;;;;;8.85;7.30;;;17.00;99.90;;;;;;5016910;28;20045;-64
2022/06/27 06:39:57;;;;;;;8.30;6.65;;;17.00;99.90;;;;;;5012770;28;20088;-64
2022/06/27 06:42:23;;;;;;;8.95;7.97;;;17.10;99.90;;;;;;5015298;28;20499;-64
2022/06/27 06:44:49;;;;;;;7.90;6.90;;;17.00;99.90;;;;;;5014226;28;20057;-63
2022/06/27 06:47:15;;;;;;;7.68;6.75;;;16.80;99.90;;;;;;5015244;28;21040;-64
2022/06/27 06:49:44;;;;;;;8.32;6.35;;;16.90;99.90;;;;;;5014643;28;20100;-62
2022/06/27 06:52:10;;;;;;;8.98;6.53;;;17.20;99.90;;;;;;5012527;28;20037;-63
2022/06/27 06:54:36;;;;;;;8.63;7.32;;;17.00;99.90;;;;;;4992166;28;20045;-62
2022/06/27 06:57:02;;;;;;;8.25;6.50;;;16.90;99.90;;;;;;5008773;28;20049;-62
2022/06/27 06:59:28;;;;;;;8.65;6.20;;;17.20;99.90;;;;;;5008706;28;20388;-62
2022/06/27 07:01:54;;;;;;;7.93;7.13;;;17.20;99.90;;;;;;4983510;28;20060;-63
2022/06/27 07:04:20;;;;;;;7.78;6.65;;;17.30;99.90;;;;;;5009208;28;20053;-63
2022/06/27 07:06:46;;;;;;;8.45;6.50;;;17.10;99.90;;;;;;5009527;28;20479;-63
2022/06/27 07:09:12;;;;;;;6.78;5.80;;;17.00;99.90;;;;;;5009212;28;20060;-63
2022/06/27 07:11:39;;;;;;;8.27;5.88;;;17.10;99.90;;;;;;5006542;28;20420;-63
2022/06/27 07:14:05;;;;;;;9.93;6.35;;;17.00;99.90;;;;;;5006561;28;20037;-63
2022/06/27 07:16:31;;;;;;;7.15;6.45;;;17.00;99.90;;;;;;4988359;28;20057;-63
2022/06/27 07:19:00;;;;;;;7.80;5.20;;;17.10;99.90;;;;;;5007755;28;20104;-63
2022/06/27 07:21:31;;;;;;;5.22;4.07;;;17.00;99.90;;;;;;4989010;28;20065;-63
2022/06/27 07:23:57;;;;;;;4.38;3.70;;;17.20;99.90;;;;;;5007434;28;20045;-63
2022/06/27 07:26:23;;;;;;;5.75;3.85;;;17.10;99.90;;;;;;4980686;28;20049;-63
2022/06/27 07:28:51;;;;;;;6.45;5.28;;;16.90;99.90;;;;;;4986834;28;20203;-64
2022/06/27 07:31:17;;;;;;;6.65;5.00;;;17.00;99.90;;;;;;4985581;28;20047;-64
2022/06/27 07:33:45;;;;;;;6.45;4.38;;;17.10;99.90;;;;;;4986685;28;20092;-63
2022/06/27 07:36:18;;;;;;;6.97;4.00;;;17.00;99.90;;;;;;4990417;28;20075;-62
2022/06/27 07:38:49;;;;;;;5.28;3.60;;;17.10;99.90;;;;;;4993557;28;20050;-63
2022/06/27 07:41:19;;;;;;;9.75;4.65;;;17.00;99.90;;;;;;5011197;28;20115;-62
2022/06/27 07:43:46;;;;;;;7.20;5.20;;;17.00;99.90;;;;;;5011119;28;20096;-62
2022/06/27 07:46:12;;;;;;;6.85;4.53;;;17.20;99.90;;;;;;5004662;28;20050;-64
2022/06/27 07:48:41;;;;;;;5.93;3.75;;;17.10;99.90;;;;;;5005262;28;20128;-64
2022/06/27 07:51:07;;;;;;;5.85;3.60;;;17.10;99.90;;;;;;5003535;28;20073;-63
2022/06/27 07:53:35;;;;;;;6.53;3.90;;;17.20;99.90;;;;;;5005802;28;20045;-64
2022/06/27 07:56:06;;;;;;;5.32;3.70;;;17.10;99.90;;;;;;4985446;28;20049;-64
2022/06/27 07:58:35;;;;;;;4.55;4.03;;;17.40;99.90;;;;;;5006598;28;20068;-63
2022/06/27 08:01:04;;;;;;;3.97;3.35;;;17.30;99.90;;;;;;4986521;28;20056;-63
2022/06/27 08:03:39;;;;;;;5.47;3.50;;;17.30;99.90;;;;;;5003184;28;21095;-64
2022/06/27 08:06:21;;;;;;;4.90;3.40;;;17.30;99.90;;;;;;4985827;28;20065;-63
2022/06/27 08:08:53;;;;;;;4.32;3.05;;;16.40;99.90;;;;;;4986588;28;20053;-63
2022/06/27 08:11:23;;;;;;;4.72;2.97;;;17.30;99.90;;;;;;5004924;28;20050;-63
2022/06/27 08:13:51;;;;;;;6.20;4.20;;;17.40;99.90;;;;;;5003854;28;20412;-63
2022/06/27 08:16:18;;;;;;;6.38;4.13;;;17.50;99.90;;;;;;4985316;28;20560;-63
2022/06/27 08:18:47;;;;;;;4.47;3.38;;;17.60;99.90;;;;;;4987456;28;20111;-63
2022/06/27 08:21:14;;;;;;;4.03;2.70;;;17.80;99.90;;;;;;4985692;28;20053;-63
2022/06/27 08:23:40;;;;;;;7.35;3.20;;;17.70;99.90;;;;;;4988205;28;20136;-63
2022/06/27 08:26:10;;;;;;;3.25;2.95;;;17.70;99.90;;;;;;5004658;28;20050;-63
2022/06/27 08:28:37;;;;;;;8.23;3.22;;;17.90;99.90;;;;;;4987756;28;21073;-63
2022/06/27 08:31:12;;;;;;;3.63;2.75;;;17.80;99.90;;;;;;4985146;28;20479;-62
2022/06/27 08:33:39;;;;;;;5.15;3.08;;;18.00;99.90;;;;;;4987835;28;20448;-62
2022/06/27 08:36:05;;;;;;;3.70;3.35;;;17.60;99.90;;;;;;5003720;28;20372;-63
2022/06/27 08:38:40;;;;;;;4.95;2.78;;;19.00;99.90;;;;;;5003404;28;20907;-65
2022/06/27 08:41:07;;;;;;;4.18;3.30;;;17.80;99.90;;;;;;4986076;28;20041;-64
2022/06/27 08:43:34;;;;;;;4.47;2.78;;;17.90;99.90;;;;;;4990799;28;20052;-64
2022/06/27 08:45:59;;;;;;;3.35;2.83;;;17.70;99.90;;;;;;5008796;28;20049;-65
2022/06/27 08:48:28;;;;;;;4.10;2.90;;;17.80;99.90;;;;;;5009522;28;20057;-64
2022/06/27 08:50:55;;;;;;;4.63;2.92;;;18.10;99.90;;;;;;5008380;28;20771;-65
2022/06/27 08:53:24;;;;;;;6.97;3.47;;;17.90;99.90;;;;;;5009577;28;20053;-65
2022/06/27 08:55:50;;;;;;;4.63;3.35;;;18.10;99.90;;;;;;4998199;28;20053;-65
2022/06/27 08:58:16;;;;;;;5.50;3.95;;;18.10;99.90;;;;;;5009223;28;20081;-64
2022/06/27 09:00:45;;;;;;;3.65;3.20;;;18.50;99.90;;;;;;5008838;28;20202;-64
2022/06/27 09:03:21;;;;;;;4.22;3.08;;;17.60;99.90;;;;;;4989642;28;20061;-64
2022/06/27 09:05:57;;;;;;;3.75;2.65;;;18.50;99.90;;;;;;5008517;28;20069;-64
2022/06/27 09:08:28;;;;;;;4.40;3.08;;;18.40;99.90;;;;;;4989993;28;20057;-64
2022/06/27 09:10:55;;;;;;;4.35;2.92;;;18.90;99.90;;;;;;5007119;28;20039;-64
2022/06/27 09:13:24;;;;;;;7.10;2.58;;;18.80;99.90;;;;;;5006526;28;20480;-64
2022/06/27 09:15:59;;;;;;;3.33;2.50;;;18.60;99.90;;;;;;4985773;28;20049;-64
2022/06/27 09:18:33;;;;;;;3.40;2.67;;;18.60;99.90;;;;;;4988492;28;20049;-65
2022/06/27 09:21:08;;;;;;;3.20;2.65;;;18.60;99.90;;;;;;4987716;28;20080;-64
2022/06/27 09:23:47;;;;;;;;;;;18.70;99.90;;;;;;4990543;28;20053;-64
2022/06/27 09:26:29;;;;;;;4.32;2.47;;;18.70;99.90;;;;;;4988120;28;20083;-64
2022/06/27 09:28:56;;;;;;;5.68;3.45;;;18.70;99.90;;;;;;4989910;28;20094;-64
2022/06/27 09:31:25;;;;;;;4.65;3.08;;;18.60;99.90;;;;;;5006712;28;20545;-64
2022/06/27 09:34:12;;;;;;;5.35;3.63;;;18.70;99.90;;;;;;4989135;28;20057;-64
2022/06/27 09:36:50;;;;;;;6.88;3.33;;;18.70;99.90;;;;;;4989327;28;20617;-64
2022/06/27 09:39:28;;;;;;;4.80;2.72;;;18.10;99.90;;;;;;5004835;28;20060;-64
2022/06/27 09:42:21;;;;;;;6.88;4.65;;;18.90;99.90;;;;;;5007617;28;20065;-66
2022/06/27 09:44:47;;;;;;;4.75;2.30;;;19.00;99.90;;;;;;4984401;28;20677;-66
2022/06/27 09:47:18;;;;;;;4.15;2.47;;;19.00;99.90;;;;;;5006361;28;20060;-64
2022/06/27 09:49:47;;;;;;;4.78;2.80;;;18.90;99.90;;;;;;5006870;28;20042;-63
2022/06/27 09:52:14;;;;;;;4.40;2.65;;;17.20;99.90;;;;;;5007984;28;20060;-64
2022/06/27 09:54:42;;;;;;;3.60;2.45;;;18.80;99.90;;;;;;5011727;28;20625;-64
2022/06/27 09:57:10;;;;;;;5.13;2.80;;;18.80;99.90;;;;;;5013788;28;20568;-65
2022/06/27 09:59:37;;;;;;;4.03;2.63;;;18.90;99.90;;;;;;5013112;28;20084;-64
2022/06/27 10:02:04;;;;;;;4.20;2.72;;;19.00;99.90;;;;;;4995017;28;20065;-64
2022/06/27 10:04:31;;;;;;;5.57;2.83;;;19.40;99.90;;;;;;5013066;28;20092;-64
2022/06/27 10:07:00;;;;;;;5.45;2.80;;;19.00;99.90;;;;;;5012425;28;20121;-64
2022/06/27 10:09:29;;;;;;;4.68;2.40;;;19.10;99.90;;;;;;5013578;28;20053;-65
2022/06/27 10:12:20;;;;;;;8.70;2.90;;;19.10;99.90;;;;;;4994367;28;20490;-65
2022/06/27 10:14:45;;;;;;;4.43;2.83;;;18.80;99.90;;;;;;5010876;28;20098;-65
2022/06/27 10:17:15;;;;;;;4.88;2.65;;;18.90;99.90;;;;;;5011164;28;20049;-64
2022/06/27 10:20:07;;;;;;;8.52;2.88;;;18.80;99.90;;;;;;5012323;28;20049;-65
2022/06/27 10:22:32;;;;;;;3.78;2.60;;;18.80;99.90;;;;;;5014885;28;20050;-66
2022/06/27 10:25:27;;;;;;;6.07;2.85;;;18.90;99.90;;;;;;4996303;28;20051;-64
2022/06/27 10:28:14;;;;;;;5.03;3.00;;;18.90;99.90;;;;;;4977788;28;20418;-63
2022/06/27 10:30:58;;;;;;;4.03;3.13;;;18.90;99.90;;;;;;4995385;28;20050;-64
2022/06/27 10:33:26;;;;;;;6.72;3.35;;;18.80;99.90;;;;;;4995843;28;20102;-65
2022/06/27 10:35:59;;;;;;;5.47;3.63;;;18.90;99.90;;;;;;4995050;28;20259;-67
2022/06/27 10:38:33;;;;;;;6.20;3.35;;;19.10;99.90;;;;;;4993179;28;20120;-64
2022/06/27 10:41:01;;;;;;;5.78;3.88;;;18.80;99.90;;;;;;5006752;28;20128;-64
2022/06/27 10:43:47;;;;;;;4.53;3.42;;;18.90;99.90;;;;;;5011312;28;20056;-66
2022/06/27 10:46:13;;;;;;;4.45;3.53;;;18.90;99.90;;;;;;4992565;28;20076;-65
2022/06/27 10:48:47;;;;;;;4.93;2.97;;;18.90;99.90;;;;;;4993630;28;20045;-64
2022/06/27 10:51:18;;;;;;;5.63;3.33;;;18.90;99.90;;;;;;4991584;28;20050;-65
2022/06/27 10:53:51;;;;;;;6.25;4.28;;;19.10;99.90;;;;;;4989352;28;20053;-64
2022/06/27 10:56:26;;;;;;;6.93;3.60;;;18.80;99.90;;;;;;5011929;28;20131;-63
2022/06/27 10:58:52;;;;;;;;;;;18.70;99.90;;;;;;5013746;28;20049;-63
2022/06/27 11:01:21;;;;;;;6.40;3.40;;;20.10;99.90;;;;;;5014125;28;19931;-64
2022/06/27 11:03:48;;;;;;;5.90;3.53;;;18.80;99.90;;;;;;4998272;28;20049;-63
2022/06/27 11:06:14;;;;;;;6.28;3.75;;;18.90;99.90;;;;;;4993604;28;20057;-64
2022/06/27 11:08:42;;;;;;;6.07;3.90;;;18.80;99.90;;;;;;4989751;28;20057;-64
2022/06/27 11:11:14;;;;;;;3.53;3.17;;;18.90;99.90;;;;;;5005545;28;20132;-64
2022/06/27 11:13:54;;;;;;;6.00;3.60;;;19.00;99.90;;;;;;5007023;28;20047;-64
2022/06/27 11:16:28;;;;;;;7.63;3.33;;;19.10;99.90;;;;;;4990900;28;20507;-64
2022/06/27 11:21:51;;;;;;;4.95;3.45;;;19.10;99.90;;;;;;4989802;28;20418;-64
2022/06/27 11:24:17;;;;;;;5.57;3.35;;;19.30;99.90;;;;;;5009922;28;20149;-64
2022/06/27 11:26:48;;;;;;;5.60;3.40;;;20.20;99.90;;;;;;4991148;28;20053;-64
2022/06/27 11:32:13;;;;;;;6.00;4.05;;;19.40;99.90;;;;;;4990016;28;20132;-64
2022/06/27 11:34:48;;;;;;;8.45;3.85;;;19.30;99.90;;;;;;4992938;28;20045;-64
2022/06/27 11:37:23;;;;;;;7.78;3.53;;;19.30;99.90;;;;;;5008954;28;20405;-64
2022/06/27 11:40:03;;;;;;;7.45;3.40;;;19.60;99.90;;;;;;5009694;28;20060;-64
2022/06/27 11:42:30;;;;;;;7.47;4.03;;;19.40;99.90;;;;;;4990886;28;20415;-64
2022/06/27 11:45:07;;;;;;;5.45;3.72;;;20.30;99.90;;;;;;5008741;28;20048;-64
2022/06/27 11:47:35;;;;;;;9.23;3.28;;;19.90;99.90;;;;;;4989276;28;20038;-64
2022/06/27 11:50:03;;;;;;;6.13;3.33;;;19.80;99.90;;;;;;5008967;28;20045;-64
2022/06/27 11:52:36;;;;;;;6.95;3.35;;;19.70;99.90;;;;;;5007511;28;20124;-64
2022/06/27 11:55:08;;;;;;;5.95;3.70;;;19.80;99.90;;;;;;5008762;28;20041;-64
2022/06/27 11:57:34;;;;;;;5.13;2.92;;;19.60;99.90;;;;;;5008832;28;20132;-64
2022/06/27 12:00:02;;;;;;;5.60;3.83;;;19.70;99.90;;;;;;5011966;28;20042;-64
2022/06/27 12:02:37;;;;;;;6.32;3.72;;;18.10;99.90;;;;;;4992938;28;20065;-64
2022/06/27 12:05:22;;;;;;;6.65;3.03;;;19.90;99.90;;;;;;4993455;28;20060;-64
2022/06/27 12:07:55;;;;;;;5.43;3.22;;;19.90;99.90;;;;;;4994347;28;20049;-64
2022/06/27 12:10:40;;;;;;;5.38;2.25;;;19.80;99.90;;;;;;5011693;28;20537;-64
2022/06/27 12:13:15;;;;;;;3.22;2.53;;;19.90;99.90;;;;;;4990301;28;20674;-64
2022/06/27 12:15:46;;;;;;;3.38;2.45;;;19.90;99.90;;;;;;4989534;28;20055;-64
2022/06/27 12:18:12;;;;;;;5.13;3.47;;;20.30;99.90;;;;;;5009453;28;20061;-64
2022/06/27 12:20:39;;;;;;;4.63;3.08;;;20.10;99.90;;;;;;4994556;28;20098;-64
2022/06/27 12:23:05;;;;;;;5.43;3.63;;;20.20;99.90;;;;;;4995078;28;20057;-64
2022/06/27 12:25:31;;;;;;;4.93;3.10;;;20.20;99.90;;;;;;5016260;28;20053;-64
2022/06/27 12:27:57;;;;;;;5.13;3.05;;;20.10;99.90;;;;;;5013400;28;20049;-64
2022/06/27 12:30:22;;;;;;;5.72;2.90;;;20.60;99.90;;;;;;4993947;28;20046;-64
2022/06/27 12:32:48;;;;;;;6.22;3.20;;;20.10;99.90;;;;;;4995463;28;20084;-64
2022/06/27 12:35:14;;;;;;;4.63;2.70;;;20.10;99.90;;;;;;5013430;28;20099;-64
2022/06/27 12:37:40;;;;;;;5.53;3.10;;;20.30;99.90;;;;;;5012623;28;20908;-64
2022/06/27 12:40:08;;;;;;;4.55;2.95;;;20.10;99.90;;;;;;4993361;28;20049;-64
2022/06/27 12:42:34;;;;;;;3.90;2.75;;;20.10;99.90;;;;;;5013413;28;20609;-64
2022/06/27 12:45:03;;;;;;;6.03;3.00;;;20.30;99.90;;;;;;5013726;28;20041;-64
2022/06/27 12:47:29;;;;;;;4.53;3.30;;;19.90;99.90;;;;;;5012861;28;20993;-64
2022/06/27 12:49:55;;;;;;;4.95;2.85;;;20.30;99.90;;;;;;5012881;28;20157;-63
2022/06/27 12:52:20;;;;;;;6.05;3.15;;;20.20;99.90;;;;;;4996379;28;20060;-64
2022/06/27 12:54:48;;;;;;;6.13;2.72;;;20.30;99.90;;;;;;4996606;28;20073;-63
2022/06/27 12:57:14;;;;;;;6.60;2.78;;;20.10;99.90;;;;;;4996769;28;20045;-63
2022/06/27 12:59:43;;;;;;;6.53;2.95;;;19.70;99.90;;;;;;5012698;28;20667;-64